< < Back
Terminal Aerodrome Forecast


Current Version              Previous Versions:   1  2  3  4  5  6  7  8  9  

Terminal Aerodrome Forecast

088
FTUS42 KILM 061733
TAFILM
TAF
KILM 061733Z 0618/0718 03010KT P6SM VCSH SCT050 BKN080
      TEMPO 0618/0622 6SM -RA BKN050
     FM062200 02008KT P6SM VCSH FEW030 BKN050
     FM070300 36011G20KT P6SM -RA SCT025 OVC050
     FM070800 36015G20KT 5SM -RA BR BKN020 OVC050
     FM071300 01020G25KT 4SM -RA BR SCT007 OVC020=



Latest METAR

086
SAUS70 KWBC 062300 RRB
MTRILM
METAR KILM 062253Z AUTO 07004KT 10SM -RA OVC060 07/02 A3029 RMK AO2
RAB00 SLP257 P0000 T00720022


USA.gov is the U.S. government's official web portal to all federal, state and local government web resources and services.